Bermuda Spirit — C6XT2 — position and weather

sailwx.info

Track history (hours):
 
Tides and Currents Weather Stations Pressure Air Temp Water Temp Dewpoint Dewpoint Depression Visibility Wind Speed Wind Dir Waves Ship Positions

Bermuda Spirit

Last reported at 2014-Aug-01 01:27 UTC. Time now 2014-Aug-02 04:34 UTC.
Position N 31°06' E 029°39'.

Length 274 m; draft 9.5 m.

Type: Tanker. MMSI: 311020900.

Date/timePositionNaut miles runAvg speedWind from/ knotsBaromVisibWave heightAir tempDewpointWater temp
2014-Aug-01 01:27N 31°06' E 029°39'0 0.0
2014-Aug-01 00:06N 31°06' E 029°39'0 0.7
2014-Jul-31 23:33N 31°05' E 029°39'3 2.9
2014-Jul-31 22:33N 31°08' E 029°39'3 2.8
2014-Jul-31 21:33N 31°08' E 029°36'6 5.8
2014-Jul-31 20:33N 31°11' E 029°30'9 9.2
2014-Jul-31 19:33N 31°15' E 029°20'10 9.6
2014-Jul-31 18:33N 31°18' E 029°09'4 3.6
2014-Jul-31 17:32N 31°19' E 029°05'1010.1
2014-Jul-31 16:33N 31°23' E 028°55'1010.3
2014-Jul-31 15:33N 31°27' E 028°43'1110.2
2014-Jul-31 14:30N 31°31' E 028°31'1010.1
2014-Jul-31 13:33N 31°34' E 028°21'4 3.7
2014-Jul-31 12:33N 31°34' E 028°17'8 6.0
2014-Jul-31 11:14N 31°39' E 028°09'37 9.9
2014-Jul-31 07:29N 31°53' E 027°28'6110.2
2014-Jul-31 01:32N 32°16' E 026°21'10 9.6
2014-Jul-31 00:31N 32°19' E 026°11'11 9.5
2014-Jul-30 23:20N 32°24' E 025°59'8 9.6
2014-Jul-30 22:29N 32°28' E 025°50'9 9.6
2014-Jul-30 21:30N 32°33' E 025°41'9 9.8
2014-Jul-30 20:32N 32°37' E 025°31'4 3.9
2014-Jul-30 19:33N 32°34' E 025°30'2 2.1
2014-Jul-30 18:32N 32°33' E 025°32'  
2014-Jul-28 13:10N 35°56' E 015°30'610.1
2014-Jul-28 12:33N 35°58' E 015°22'1010.0
2014-Jul-28 11:33N 36°01' E 015°11'1010.1
2014-Jul-28 10:34N 36°05' E 014°59'1010.2
2014-Jul-28 09:33N 36°09' E 014°47'1010.0
2014-Jul-28 08:33N 36°13' E 014°36'1413.6
2014-Jul-28 07:34N 36°17' E 014°20'1514.4
2014-Jul-28 06:33N 36°22' E 014°03'1010.3
2014-Jul-28 05:32N 36°26' E 013°51'9 9.7
2014-Jul-28 04:34N 36°30' E 013°40'10 9.7
2014-Jul-28 03:34N 36°32' E 013°29'10 9.7
2014-Jul-28 02:33N 36°36' E 013°18'1010.2
2014-Jul-28 01:34N 36°40' E 013°06'1110.9
2014-Jul-28 00:34N 36°44' E 012°53'1111.0
2014-Jul-27 23:33N 36°48' E 012°40'1510.7
2014-Jul-27 22:09N 36°53' E 012°23'2610.1
2014-Jul-27 19:33N 37°03' E 011°52'6010.0
2014-Jul-27 13:33N 37°29' E 010°44'1210.4
2014-Jul-27 12:22N 37°32' E 010°29'1210.5
2014-Jul-27 11:11N 37°34' E 010°14'710.6
2014-Jul-27 10:31N 37°34' E 010°05'1410.7
2014-Jul-27 09:10N 37°35' E 009°47'710.7
2014-Jul-27 08:32N 37°38' E 009°39'1111.1
2014-Jul-27 07:33N 37°42' E 009°26'1111.0
2014-Jul-27 06:32N 37°46' E 009°13'1111.2
2014-Jul-27 05:33N 37°50' E 009°00'1111.6
2014-Jul-27 04:33N 37°49' E 008°46'1111.1
2014-Jul-27 03:33N 37°47' E 008°32'1110.7
2014-Jul-27 02:32N 37°46' E 008°18'2510.4
2014-Jul-27 00:10N 37°43' E 007°47'710.6
2014-Jul-26 23:33N 37°43' E 007°39'8210.1
2014-Jul-26 15:29N 37°32' E 005°57'19 9.8
2014-Jul-26 13:33N 37°30' E 005°33'2410.0
2014-Jul-26 11:08N 37°27' E 005°03'710.1
2014-Jul-26 10:27N 37°26' E 004°54'1110.3
2014-Jul-26 09:25N 37°24' E 004°41'8310.5
2014-Jul-26 01:30N 37°15' E 002°57'9 9.6
2014-Jul-26 00:33N 37°12' E 002°46'10 9.5
2014-Jul-25 23:33N 37°10' E 002°35'9 9.4
2014-Jul-25 22:33N 37°08' E 002°23'60 9.3
2014-Jul-25 16:09N 36°52' E 001°11'17 9.7
2014-Jul-25 14:22N 36°48' E 000°50'9 9.8
2014-Jul-25 13:25N 36°46' E 000°39'6910.0
2014-Jul-25 06:28N 36°14' W 000°38'1110.4
2014-Jul-25 05:26N 36°10' W 000°50'2210.6
2014-Jul-25 03:23N 36°04' W 001°16'2310.5
2014-Jul-25 01:14N 35°58' W 001°43'910.3
2014-Jul-25 00:22N 35°55' W 001°54'2010.9
2014-Jul-24 22:33N 35°50' W 002°18'1211.6
2014-Jul-24 21:33N 35°48' W 002°31'1210.8
2014-Jul-24 20:29N 35°45' W 002°45'127 4.1
2014-Jul-23 13:13N 36°04' W 005°21'6 0.3
2014-Jul-22 16:22N 36°10' W 005°23'  
Track history (hours):
 
Tides and Currents Weather Stations Pressure Air Temp Water Temp Dewpoint Dewpoint Depression Visibility Wind Speed Wind Dir Waves Ship Positions

Bermuda Spirit

Last reported at 2014-Aug-01 01:27 UTC. Time now 2014-Aug-02 04:34 UTC.
Position N 31°06' E 029°39'.

Length 274 m; draft 9.5 m.

Type: Tanker. MMSI: 311020900.

Date/timePositionNaut miles runAvg speedWind from/ knotsBaromVisibWave heightAir tempDewpointWater temp
2014-Aug-01 01:27N 31°06' E 029°39'0 0.0
2014-Aug-01 00:06N 31°06' E 029°39'0 0.7
2014-Jul-31 23:33N 31°05' E 029°39'3 2.9
2014-Jul-31 22:33N 31°08' E 029°39'3 2.8
2014-Jul-31 21:33N 31°08' E 029°36'6 5.8
2014-Jul-31 20:33N 31°11' E 029°30'9 9.2
2014-Jul-31 19:33N 31°15' E 029°20'10 9.6
2014-Jul-31 18:33N 31°18' E 029°09'4 3.6
2014-Jul-31 17:32N 31°19' E 029°05'1010.1
2014-Jul-31 16:33N 31°23' E 028°55'1010.3
2014-Jul-31 15:33N 31°27' E 028°43'1110.2
2014-Jul-31 14:30N 31°31' E 028°31'1010.1
2014-Jul-31 13:33N 31°34' E 028°21'4 3.7
2014-Jul-31 12:33N 31°34' E 028°17'8 6.0
2014-Jul-31 11:14N 31°39' E 028°09'37 9.9
2014-Jul-31 07:29N 31°53' E 027°28'6110.2
2014-Jul-31 01:32N 32°16' E 026°21'10 9.6
2014-Jul-31 00:31N 32°19' E 026°11'11 9.5
2014-Jul-30 23:20N 32°24' E 025°59'8 9.6
2014-Jul-30 22:29N 32°28' E 025°50'9 9.6
2014-Jul-30 21:30N 32°33' E 025°41'9 9.8
2014-Jul-30 20:32N 32°37' E 025°31'4 3.9
2014-Jul-30 19:33N 32°34' E 025°30'2 2.1
2014-Jul-30 18:32N 32°33' E 025°32'  
2014-Jul-28 13:10N 35°56' E 015°30'610.1
2014-Jul-28 12:33N 35°58' E 015°22'1010.0
2014-Jul-28 11:33N 36°01' E 015°11'1010.1
2014-Jul-28 10:34N 36°05' E 014°59'1010.2
2014-Jul-28 09:33N 36°09' E 014°47'1010.0
2014-Jul-28 08:33N 36°13' E 014°36'1413.6
2014-Jul-28 07:34N 36°17' E 014°20'1514.4
2014-Jul-28 06:33N 36°22' E 014°03'1010.3
2014-Jul-28 05:32N 36°26' E 013°51'9 9.7
2014-Jul-28 04:34N 36°30' E 013°40'10 9.7
2014-Jul-28 03:34N 36°32' E 013°29'10 9.7
2014-Jul-28 02:33N 36°36' E 013°18'1010.2
2014-Jul-28 01:34N 36°40' E 013°06'1110.9
2014-Jul-28 00:34N 36°44' E 012°53'1111.0
2014-Jul-27 23:33N 36°48' E 012°40'1510.7
2014-Jul-27 22:09N 36°53' E 012°23'2610.1
2014-Jul-27 19:33N 37°03' E 011°52'6010.0
2014-Jul-27 13:33N 37°29' E 010°44'1210.4
2014-Jul-27 12:22N 37°32' E 010°29'1210.5
2014-Jul-27 11:11N 37°34' E 010°14'710.6
2014-Jul-27 10:31N 37°34' E 010°05'1410.7
2014-Jul-27 09:10N 37°35' E 009°47'710.7
2014-Jul-27 08:32N 37°38' E 009°39'1111.1
2014-Jul-27 07:33N 37°42' E 009°26'1111.0
2014-Jul-27 06:32N 37°46' E 009°13'1111.2
2014-Jul-27 05:33N 37°50' E 009°00'1111.6
2014-Jul-27 04:33N 37°49' E 008°46'1111.1
2014-Jul-27 03:33N 37°47' E 008°32'1110.7
2014-Jul-27 02:32N 37°46' E 008°18'2510.4
2014-Jul-27 00:10N 37°43' E 007°47'710.6
2014-Jul-26 23:33N 37°43' E 007°39'8210.1
2014-Jul-26 15:29N 37°32' E 005°57'19 9.8
2014-Jul-26 13:33N 37°30' E 005°33'2410.0
2014-Jul-26 11:08N 37°27' E 005°03'710.1
2014-Jul-26 10:27N 37°26' E 004°54'1110.3
2014-Jul-26 09:25N 37°24' E 004°41'8310.5
2014-Jul-26 01:30N 37°15' E 002°57'9 9.6
2014-Jul-26 00:33N 37°12' E 002°46'10 9.5
2014-Jul-25 23:33N 37°10' E 002°35'9 9.4
2014-Jul-25 22:33N 37°08' E 002°23'60 9.3
2014-Jul-25 16:09N 36°52' E 001°11'17 9.7
2014-Jul-25 14:22N 36°48' E 000°50'9 9.8
2014-Jul-25 13:25N 36°46' E 000°39'6910.0
2014-Jul-25 06:28N 36°14' W 000°38'1110.4
2014-Jul-25 05:26N 36°10' W 000°50'2210.6
2014-Jul-25 03:23N 36°04' W 001°16'2310.5
2014-Jul-25 01:14N 35°58' W 001°43'910.3
2014-Jul-25 00:22N 35°55' W 001°54'2010.9
2014-Jul-24 22:33N 35°50' W 002°18'1211.6
2014-Jul-24 21:33N 35°48' W 002°31'1210.8
2014-Jul-24 20:29N 35°45' W 002°45'127 4.1
2014-Jul-23 13:13N 36°04' W 005°21'6 0.3
2014-Jul-22 16:22N 36°10' W 005°23'  

Dump ship's entire track history